createdAt,value
2017-07-29T00:01:21.766Z,16.90
2017-07-29T00:03:50.049Z,16.90
2017-07-29T00:06:17.630Z,16.80
2017-07-29T00:08:45.197Z,16.90
2017-07-29T00:11:12.721Z,16.90
2017-07-29T00:13:41.137Z,17.00
2017-07-29T00:16:08.708Z,17.00
2017-07-29T00:18:36.235Z,17.00
2017-07-29T00:21:03.773Z,17.10
2017-07-29T00:23:32.072Z,17.10
2017-07-29T00:25:59.658Z,17.10
2017-07-29T00:28:27.218Z,17.00
2017-07-29T00:30:54.777Z,17.00
2017-07-29T00:33:22.338Z,16.90
2017-07-29T00:35:49.878Z,16.90
2017-07-29T00:38:17.466Z,16.90
2017-07-29T00:40:45.024Z,16.80
2017-07-29T00:43:12.586Z,16.80
2017-07-29T00:45:40.242Z,16.80
2017-07-29T00:48:07.811Z,16.80
2017-07-29T00:50:35.374Z,16.80
2017-07-29T00:53:02.925Z,16.80
2017-07-29T00:55:30.589Z,16.80
2017-07-29T00:57:58.159Z,16.70
2017-07-29T01:00:25.717Z,16.70
2017-07-29T01:02:53.275Z,16.70
2017-07-29T01:05:20.810Z,16.70
2017-07-29T01:07:49.063Z,16.70
2017-07-29T01:10:17.357Z,16.70
2017-07-29T01:12:44.958Z,16.70
2017-07-29T01:15:12.506Z,16.80
2017-07-29T01:17:40.057Z,16.80
2017-07-29T01:20:07.586Z,16.80
2017-07-29T01:22:36.021Z,16.80
2017-07-29T01:25:03.574Z,16.80
2017-07-29T01:27:31.126Z,16.80
2017-07-29T01:29:58.662Z,16.90
2017-07-29T01:32:26.285Z,16.90
2017-07-29T01:34:53.914Z,16.90
2017-07-29T01:37:21.445Z,17.00
2017-07-29T01:39:49.750Z,17.00
2017-07-29T01:42:17.273Z,17.00
2017-07-29T01:44:45.694Z,17.00
2017-07-29T01:47:13.273Z,17.00
2017-07-29T01:49:40.930Z,17.00
2017-07-29T01:52:08.479Z,17.00
2017-07-29T01:54:36.047Z,17.00
2017-07-29T01:57:03.573Z,17.00
2017-07-29T01:59:31.146Z,17.00
2017-07-29T02:01:58.721Z,16.90
2017-07-29T02:04:26.246Z,16.90
2017-07-29T02:06:54.569Z,16.90
2017-07-29T02:09:22.124Z,16.90
2017-07-29T02:11:49.640Z,16.90
2017-07-29T02:14:17.961Z,16.90
2017-07-29T02:16:45.527Z,16.90
2017-07-29T02:19:13.053Z,16.80
2017-07-29T02:21:40.645Z,16.80
2017-07-29T02:24:08.178Z,16.80
2017-07-29T02:26:35.741Z,16.80
2017-07-29T02:29:03.334Z,16.90
2017-07-29T02:31:30.890Z,16.90
2017-07-29T02:33:58.421Z,16.90
2017-07-29T02:36:26.019Z,17.00
2017-07-29T02:38:53.569Z,17.00
2017-07-29T02:41:21.242Z,16.90
2017-07-29T02:43:48.773Z,16.90
2017-07-29T02:46:16.366Z,16.90
2017-07-29T02:48:43.923Z,16.90
2017-07-29T02:51:11.455Z,16.90
2017-07-29T02:53:39.037Z,16.90
2017-07-29T02:56:06.598Z,16.90
2017-07-29T02:58:34.162Z,16.80
2017-07-29T03:01:01.717Z,16.80
2017-07-29T03:03:29.261Z,16.90
2017-07-29T03:05:56.846Z,16.90
2017-07-29T03:08:24.501Z,16.90
2017-07-29T03:10:52.065Z,17.00
2017-07-29T03:13:19.622Z,17.00
2017-07-29T03:15:47.141Z,17.00
2017-07-29T03:18:15.433Z,17.00
2017-07-29T03:20:43.022Z,17.00
2017-07-29T03:23:10.585Z,17.10
2017-07-29T03:25:38.145Z,17.00
2017-07-29T03:28:05.677Z,17.10
2017-07-29T03:30:33.275Z,17.10
2017-07-29T03:33:00.806Z,17.10
2017-07-29T03:35:28.343Z,17.00
2017-07-29T03:37:56.769Z,17.10
2017-07-29T03:40:24.335Z,17.10
2017-07-29T03:42:51.901Z,17.10
2017-07-29T03:45:19.429Z,17.10
2017-07-29T03:47:47.334Z,17.20
2017-07-29T03:50:15.086Z,17.10
2017-07-29T03:52:42.658Z,17.10
2017-07-29T03:55:10.213Z,17.20
2017-07-29T03:57:37.740Z,17.10
2017-07-29T04:00:05.338Z,17.10
2017-07-29T04:02:32.861Z,17.10
2017-07-29T04:05:00.446Z,17.20
2017-07-29T04:07:28.012Z,17.20
2017-07-29T04:09:55.533Z,17.20
2017-07-29T04:12:23.818Z,17.20
2017-07-29T04:14:51.350Z,17.20
2017-07-29T04:17:18.978Z,17.20
2017-07-29T04:19:46.505Z,17.20
2017-07-29T04:22:14.095Z,17.20
2017-07-29T04:24:41.629Z,17.20
2017-07-29T04:27:09.234Z,17.20
2017-07-29T04:29:36.789Z,17.20
2017-07-29T04:32:04.346Z,17.20
2017-07-29T04:34:31.905Z,17.20
2017-07-29T04:36:59.460Z,17.20
2017-07-29T04:39:27.022Z,17.20
2017-07-29T04:41:54.550Z,17.20
2017-07-29T04:44:22.140Z,17.20
2017-07-29T04:46:49.669Z,17.20
2017-07-29T04:49:17.983Z,17.10
2017-07-29T04:51:45.546Z,17.10
2017-07-29T04:54:13.078Z,17.20
2017-07-29T04:56:40.658Z,17.20
2017-07-29T04:59:08.269Z,17.20
2017-07-29T05:01:35.882Z,17.20
2017-07-29T05:04:03.458Z,17.30
2017-07-29T05:06:31.004Z,17.30
2017-07-29T05:08:58.569Z,17.30
2017-07-29T05:11:26.125Z,17.30
2017-07-29T05:13:53.793Z,17.30
2017-07-29T05:16:21.355Z,17.30
2017-07-29T05:18:49.115Z,17.50
2017-07-29T05:21:16.885Z,17.40
2017-07-29T05:23:44.412Z,17.60
2017-07-29T05:26:12.010Z,17.60
2017-07-29T05:28:39.566Z,17.60
2017-07-29T05:31:07.230Z,17.60
2017-07-29T05:33:34.757Z,17.70
2017-07-29T05:36:03.045Z,17.90
2017-07-29T05:38:30.582Z,17.90
2017-07-29T05:40:59.010Z,18.00
2017-07-29T05:43:26.542Z,18.00
2017-07-29T05:45:54.101Z,18.10
2017-07-29T05:48:21.710Z,18.10
2017-07-29T05:50:49.260Z,18.10
2017-07-29T05:53:16.810Z,18.10
2017-07-29T05:55:44.374Z,18.10
2017-07-29T05:58:11.933Z,18.10
2017-07-29T06:00:39.462Z,18.10
2017-07-29T06:03:07.754Z,18.20
2017-07-29T06:05:35.277Z,18.20
2017-07-29T06:08:02.810Z,18.40
2017-07-29T06:10:30.355Z,18.40
2017-07-29T06:12:58.011Z,18.50
2017-07-29T06:15:25.544Z,18.40
2017-07-29T06:17:53.138Z,18.50
2017-07-29T06:20:20.698Z,18.40
2017-07-29T06:22:48.259Z,18.40
2017-07-29T06:25:15.781Z,18.30
2017-07-29T06:27:44.075Z,18.30
2017-07-29T06:30:11.666Z,18.30
2017-07-29T06:32:39.193Z,18.30
2017-07-29T06:35:06.776Z,18.40
2017-07-29T06:37:34.338Z,18.40
2017-07-29T06:40:01.910Z,18.40
2017-07-29T06:42:29.437Z,18.30
2017-07-29T06:44:57.035Z,18.30
2017-07-29T06:47:24.562Z,18.30
2017-07-29T06:49:52.154Z,18.30
2017-07-29T06:52:19.710Z,18.40
2017-07-29T06:54:47.273Z,18.40
2017-07-29T06:57:14.805Z,18.50
2017-07-29T06:59:42.390Z,18.60
2017-07-29T07:02:09.950Z,18.50
2017-07-29T07:04:37.478Z,18.50
2017-07-29T07:07:05.004Z,18.50
2017-07-29T07:09:32.537Z,18.50
2017-07-29T07:12:00.188Z,18.60
2017-07-29T07:14:27.749Z,18.70
2017-07-29T07:16:55.314Z,18.70
2017-07-29T07:19:22.851Z,18.70
2017-07-29T07:21:50.433Z,18.90
2017-07-29T07:24:17.994Z,18.90
2017-07-29T07:26:45.657Z,19.00
2017-07-29T07:29:13.182Z,19.10
2017-07-29T07:31:41.585Z,19.40
2017-07-29T07:34:09.101Z,19.40
2017-07-29T07:36:36.718Z,19.50
2017-07-29T07:39:04.282Z,19.60
2017-07-29T07:41:31.838Z,19.70
2017-07-29T07:43:59.404Z,20.00
2017-07-29T07:46:26.966Z,20.10
2017-07-29T07:48:54.543Z,20.40
2017-07-29T07:51:22.081Z,20.70
2017-07-29T07:53:49.645Z,21.20
2017-07-29T07:56:17.207Z,22.00
2017-07-29T07:58:44.969Z,22.60
2017-07-29T08:01:12.502Z,22.90
2017-07-29T08:03:40.814Z,25.20
2017-07-29T08:06:08.374Z,25.20
2017-07-29T08:08:35.947Z,25.30
2017-07-29T08:11:03.598Z,25.40
2017-07-29T08:13:31.169Z,26.60
2017-07-29T08:15:58.743Z,26.30
2017-07-29T08:18:26.282Z,26.40
2017-07-29T08:20:53.840Z,26.60
2017-07-29T08:23:21.371Z,25.90
2017-07-29T08:25:48.961Z,24.80
2017-07-29T08:28:16.522Z,25.30
2017-07-29T08:30:44.082Z,25.70
2017-07-29T08:33:11.645Z,25.80
2017-07-29T08:35:39.319Z,24.20
2017-07-29T08:38:06.965Z,23.00
2017-07-29T08:40:34.529Z,22.60
2017-07-29T08:43:02.061Z,22.50
2017-07-29T08:45:29.585Z,22.20
2017-07-29T08:47:57.150Z,22.10
2017-07-29T08:50:24.682Z,21.80
2017-07-29T08:52:52.341Z,23.40
2017-07-29T08:55:19.894Z,24.20
2017-07-29T08:57:47.467Z,25.00
2017-07-29T09:00:15.023Z,24.80
2017-07-29T09:02:42.588Z,23.80
2017-07-29T09:05:10.137Z,22.60
2017-07-29T09:07:37.706Z,22.60
2017-07-29T09:10:05.262Z,22.30
2017-07-29T09:12:32.934Z,22.50
2017-07-29T09:15:00.485Z,22.50
2017-07-29T09:17:28.055Z,23.40
2017-07-29T09:19:55.605Z,23.20
2017-07-29T09:22:23.139Z,22.70
2017-07-29T09:24:50.694Z,22.90
2017-07-29T09:27:18.985Z,24.30
2017-07-29T09:29:46.505Z,24.30
2017-07-29T09:32:14.135Z,23.60
2017-07-29T09:34:41.690Z,23.20
2017-07-29T09:37:09.251Z,23.40
2017-07-29T09:39:36.813Z,23.80
2017-07-29T09:42:04.341Z,23.70
2017-07-29T09:44:31.933Z,23.50
2017-07-29T09:46:59.490Z,23.10
2017-07-29T09:49:27.054Z,22.90
2017-07-29T09:51:54.582Z,23.10
2017-07-29T09:54:22.881Z,23.60
2017-07-29T09:56:50.403Z,23.60
2017-07-29T09:59:18.738Z,23.10
2017-07-29T10:01:46.272Z,23.10
2017-07-29T10:04:13.852Z,24.10
2017-07-29T10:06:41.393Z,25.50
2017-07-29T10:09:08.977Z,26.20
2017-07-29T10:11:36.505Z,26.20
2017-07-29T10:14:04.115Z,26.00
2017-07-29T10:16:31.653Z,25.00
2017-07-29T10:18:59.181Z,24.70
2017-07-29T10:21:26.733Z,24.60
2017-07-29T10:23:55.059Z,25.20
2017-07-29T10:26:22.636Z,25.20
2017-07-29T10:28:50.176Z,25.40
2017-07-29T10:31:17.835Z,24.90
2017-07-29T10:33:45.397Z,25.20
2017-07-29T10:36:12.957Z,25.60
2017-07-29T10:38:40.478Z,25.60
2017-07-29T10:41:08.797Z,25.20
2017-07-29T10:43:36.357Z,25.20
2017-07-29T10:46:03.922Z,25.20
2017-07-29T10:48:31.588Z,25.00
2017-07-29T10:50:59.962Z,24.50
2017-07-29T10:53:27.485Z,24.50
2017-07-29T10:55:55.806Z,24.60
2017-07-29T10:58:23.374Z,24.50
2017-07-29T11:00:50.926Z,24.30
2017-07-29T11:03:18.458Z,24.30
2017-07-29T11:05:46.058Z,23.90
2017-07-29T11:08:13.653Z,23.90
2017-07-29T11:10:41.994Z,24.40
2017-07-29T11:13:09.557Z,24.40
2017-07-29T11:15:37.126Z,24.70
2017-07-29T11:18:04.670Z,24.80
2017-07-29T11:20:32.189Z,24.30
2017-07-29T11:23:00.509Z,24.10
2017-07-29T11:25:28.082Z,24.00
2017-07-29T11:27:55.639Z,23.80
2017-07-29T11:30:23.170Z,23.50
2017-07-29T11:32:50.689Z,23.10
2017-07-29T11:35:18.310Z,23.20
2017-07-29T11:37:45.840Z,23.40
2017-07-29T11:40:13.450Z,23.60
2017-07-29T11:42:41.001Z,24.30
2017-07-29T11:45:08.549Z,24.40
2017-07-29T11:47:36.114Z,25.10
2017-07-29T11:50:03.774Z,25.40
2017-07-29T11:52:31.330Z,24.90
2017-07-29T11:54:58.898Z,25.40
2017-07-29T11:57:26.434Z,25.20
2017-07-29T11:59:54.021Z,25.30
2017-07-29T12:02:21.582Z,24.80
2017-07-29T12:04:49.102Z,25.00
2017-07-29T12:07:17.422Z,24.90
2017-07-29T12:09:44.989Z,24.90
2017-07-29T12:12:12.510Z,25.40
2017-07-29T12:14:40.097Z,25.70
2017-07-29T12:17:07.666Z,25.70
2017-07-29T12:19:35.330Z,24.80
2017-07-29T12:22:02.887Z,24.90
2017-07-29T12:24:30.446Z,24.60
2017-07-29T12:26:57.970Z,24.70
2017-07-29T12:29:26.490Z,25.70
2017-07-29T12:31:54.063Z,25.70
2017-07-29T12:34:21.610Z,25.50
2017-07-29T12:36:49.185Z,25.00
2017-07-29T12:39:16.715Z,24.80
2017-07-29T12:41:44.306Z,25.50
2017-07-29T12:44:11.853Z,25.50
2017-07-29T12:46:39.402Z,25.50
2017-07-29T12:49:06.983Z,25.70
2017-07-29T12:51:34.637Z,25.90
2017-07-29T12:54:02.299Z,25.70
2017-07-29T12:56:29.871Z,26.00
2017-07-29T12:58:57.421Z,25.70
2017-07-29T13:01:24.945Z,25.30
2017-07-29T13:03:53.266Z,24.40
2017-07-29T13:06:20.828Z,24.30
2017-07-29T13:08:48.495Z,24.20
2017-07-29T13:11:16.050Z,25.00
2017-07-29T13:13:43.689Z,25.30
2017-07-29T13:16:11.217Z,25.50
2017-07-29T13:18:38.789Z,25.60
2017-07-29T13:21:07.081Z,25.50
2017-07-29T13:23:34.668Z,25.40
2017-07-29T13:26:02.194Z,24.90
2017-07-29T13:28:30.515Z,24.80
2017-07-29T13:30:58.050Z,24.80
2017-07-29T13:33:25.633Z,25.00
2017-07-29T13:35:53.195Z,25.30
2017-07-29T13:38:20.762Z,25.70
2017-07-29T13:40:48.418Z,25.40
2017-07-29T13:43:15.980Z,25.30
2017-07-29T13:45:43.642Z,25.60
2017-07-29T13:48:11.211Z,25.40
2017-07-29T13:50:38.862Z,25.00
2017-07-29T13:53:06.421Z,25.20
2017-07-29T13:55:33.951Z,25.10
2017-07-29T13:58:02.269Z,25.50
2017-07-29T14:00:29.830Z,25.50
2017-07-29T14:02:57.486Z,25.90
2017-07-29T14:05:25.050Z,26.10
2017-07-29T14:07:52.610Z,25.60
2017-07-29T14:10:20.170Z,25.40
2017-07-29T14:12:47.697Z,25.00
2017-07-29T14:15:15.290Z,25.30
2017-07-29T14:17:42.861Z,25.20
2017-07-29T14:20:10.422Z,25.00
2017-07-29T14:22:37.990Z,24.80
2017-07-29T14:25:05.509Z,24.30
2017-07-29T14:27:33.100Z,24.30
2017-07-29T14:30:00.658Z,24.10
2017-07-29T14:32:28.220Z,24.60
2017-07-29T14:34:55.792Z,25.30
2017-07-29T14:37:23.322Z,25.60
2017-07-29T14:39:50.912Z,25.10
2017-07-29T14:42:18.446Z,25.00
2017-07-29T14:44:45.990Z,24.70
2017-07-29T14:47:13.525Z,24.80
2017-07-29T14:49:41.135Z,24.60
2017-07-29T14:52:08.698Z,24.50
2017-07-29T14:54:36.242Z,24.60
2017-07-29T14:57:03.826Z,24.70
2017-07-29T14:59:31.381Z,24.90
2017-07-29T15:01:58.918Z,24.90
2017-07-29T15:04:26.506Z,24.90
2017-07-29T15:06:54.065Z,24.70
2017-07-29T15:09:21.622Z,24.20
2017-07-29T15:11:49.145Z,24.20
2017-07-29T15:14:17.565Z,23.80
2017-07-29T15:16:45.133Z,23.80
2017-07-29T15:19:12.690Z,24.10
2017-07-29T15:21:40.247Z,24.50
2017-07-29T15:24:07.786Z,24.80
2017-07-29T15:29:28.082Z,25.00
2017-07-29T15:31:56.416Z,25.50
2017-07-29T15:34:23.961Z,25.50
2017-07-29T15:36:51.633Z,25.30
2017-07-29T15:39:19.282Z,25.20
2017-07-29T15:41:46.818Z,25.00
2017-07-29T15:44:14.349Z,24.80
2017-07-29T15:46:41.875Z,24.70
2017-07-29T15:49:09.408Z,24.50
2017-07-29T15:51:36.989Z,24.50
2017-07-29T15:54:04.548Z,24.50
2017-07-29T15:56:32.226Z,24.40
2017-07-29T15:58:59.773Z,24.30
2017-07-29T16:01:27.307Z,24.30
2017-07-29T16:03:54.839Z,24.70
2017-07-29T16:06:23.170Z,25.00
2017-07-29T16:08:50.730Z,25.00
2017-07-29T16:11:18.298Z,24.70
2017-07-29T16:13:45.961Z,24.50
2017-07-29T16:16:13.527Z,24.50
2017-07-29T16:18:41.059Z,24.40
2017-07-29T16:21:08.645Z,24.50
2017-07-29T16:23:36.206Z,24.30
2017-07-29T16:26:03.741Z,24.20
2017-07-29T16:28:31.266Z,24.10
2017-07-29T16:30:59.593Z,24.40
2017-07-29T16:33:27.168Z,24.40
2017-07-29T16:35:54.715Z,24.50
2017-07-29T16:38:22.268Z,24.50
2017-07-29T16:40:49.837Z,24.10
2017-07-29T16:43:17.401Z,24.20
2017-07-29T16:45:44.967Z,24.30
2017-07-29T16:48:12.493Z,24.30
2017-07-29T16:50:40.081Z,24.40
2017-07-29T16:53:07.649Z,24.20
2017-07-29T16:55:35.182Z,24.20
2017-07-29T16:58:02.723Z,24.20
2017-07-29T17:00:31.016Z,24.20
2017-07-29T17:02:58.546Z,24.10
2017-07-29T17:05:26.180Z,24.10
2017-07-29T17:07:53.704Z,24.10
2017-07-29T17:10:21.293Z,24.00
2017-07-29T17:12:48.846Z,24.00
2017-07-29T17:15:16.417Z,23.90
2017-07-29T17:17:43.965Z,24.00
2017-07-29T17:20:11.493Z,23.90
2017-07-29T17:22:39.790Z,23.80
2017-07-29T17:25:07.318Z,23.80
2017-07-29T17:27:35.645Z,23.80
2017-07-29T17:30:03.218Z,23.80
2017-07-29T17:32:30.779Z,23.70
2017-07-29T17:34:58.305Z,23.70
2017-07-29T17:37:25.869Z,23.70
2017-07-29T17:39:53.458Z,23.60
2017-07-29T17:42:21.014Z,23.50
2017-07-29T17:44:48.573Z,23.40
2017-07-29T17:47:16.105Z,23.40
2017-07-29T17:49:43.694Z,23.30
2017-07-29T17:52:11.249Z,23.30
2017-07-29T17:54:38.779Z,23.30
2017-07-29T17:57:06.374Z,23.20
2017-07-29T17:59:33.903Z,23.20
2017-07-29T18:02:01.595Z,23.20
2017-07-29T18:04:29.118Z,23.20
2017-07-29T18:06:57.441Z,23.10
2017-07-29T18:09:24.965Z,23.10
2017-07-29T18:11:53.286Z,23.20
2017-07-29T18:14:20.838Z,23.20
2017-07-29T18:16:48.398Z,23.10
2017-07-29T18:19:15.962Z,23.00
2017-07-29T18:21:43.490Z,23.10
2017-07-29T18:24:11.094Z,23.10
2017-07-29T18:26:38.641Z,23.10
2017-07-29T18:29:06.192Z,23.10
2017-07-29T18:31:33.764Z,23.00
2017-07-29T18:34:01.318Z,23.00
2017-07-29T18:36:28.881Z,22.90
2017-07-29T18:38:56.430Z,22.90
2017-07-29T18:41:24.009Z,22.80
2017-07-29T18:43:51.695Z,22.70
2017-07-29T18:46:19.328Z,22.70
2017-07-29T18:48:46.893Z,22.60
2017-07-29T18:51:14.454Z,22.50
2017-07-29T18:53:41.985Z,22.60
2017-07-29T18:56:09.584Z,22.60
2017-07-29T18:58:37.110Z,22.60
2017-07-29T19:01:04.663Z,22.60
2017-07-29T19:03:32.356Z,22.50
2017-07-29T19:05:59.905Z,22.40
2017-07-29T19:08:27.506Z,22.30
2017-07-29T19:10:55.054Z,22.30
2017-07-29T19:13:22.584Z,22.30
2017-07-29T19:15:50.162Z,22.30
2017-07-29T19:18:17.701Z,22.20
2017-07-29T19:20:45.259Z,22.20
2017-07-29T19:23:12.856Z,22.30
2017-07-29T19:25:40.410Z,22.40
2017-07-29T19:28:07.966Z,22.30
2017-07-29T19:30:35.526Z,22.50
2017-07-29T19:33:03.493Z,22.60
2017-07-29T19:35:31.018Z,22.60
2017-07-29T19:37:59.342Z,22.60
2017-07-29T19:40:26.877Z,22.60
2017-07-29T19:42:54.428Z,22.60
2017-07-29T19:45:22.017Z,22.60
2017-07-29T19:47:49.569Z,22.40
2017-07-29T19:50:17.150Z,22.30
2017-07-29T19:52:44.710Z,22.30
2017-07-29T19:55:18.307Z,22.20
2017-07-29T19:57:45.980Z,22.10
2017-07-29T20:00:13.533Z,22.00
2017-07-29T20:02:41.190Z,21.70
2017-07-29T20:05:08.714Z,21.70
2017-07-29T20:07:37.037Z,21.50
2017-07-29T20:10:04.598Z,21.50
2017-07-29T20:12:32.153Z,21.40
2017-07-29T20:14:59.683Z,21.20
2017-07-29T20:17:27.271Z,21.10
2017-07-29T20:19:54.828Z,21.10
2017-07-29T20:22:22.395Z,21.00
2017-07-29T20:24:50.058Z,20.90
2017-07-29T20:27:17.628Z,20.80
2017-07-29T20:29:45.278Z,20.70
2017-07-29T20:32:12.842Z,20.60
2017-07-29T20:34:40.402Z,20.70
2017-07-29T20:37:07.926Z,20.80
2017-07-29T20:39:36.341Z,20.80
2017-07-29T20:42:03.910Z,20.70
2017-07-29T20:44:31.466Z,20.70
2017-07-29T20:46:58.994Z,20.70
2017-07-29T20:49:27.326Z,20.80
2017-07-29T20:51:54.862Z,20.80
2017-07-29T20:54:22.426Z,21.00
2017-07-29T20:56:49.954Z,21.10
2017-07-29T20:59:17.490Z,21.20
2017-07-29T21:01:45.018Z,21.20
2017-07-29T21:04:12.566Z,21.20
2017-07-29T21:06:40.197Z,21.20
2017-07-29T21:09:08.493Z,21.40
2017-07-29T21:11:36.074Z,21.30
2017-07-29T21:14:03.602Z,21.30
2017-07-29T21:16:31.129Z,21.40
2017-07-29T21:18:58.669Z,21.30
2017-07-29T21:21:26.216Z,21.40
2017-07-29T21:23:53.776Z,21.70
2017-07-29T21:26:21.342Z,21.50
2017-07-29T21:28:48.901Z,21.40
2017-07-29T21:31:16.536Z,21.50
2017-07-29T21:33:44.093Z,21.50
2017-07-29T21:36:11.686Z,21.40
2017-07-29T21:38:47.942Z,21.50
2017-07-29T21:41:15.505Z,21.50
2017-07-29T21:43:43.041Z,21.40
2017-07-29T21:46:10.625Z,21.40
2017-07-29T21:48:38.153Z,21.30
2017-07-29T21:51:05.756Z,21.30
2017-07-29T21:53:33.313Z,21.30
2017-07-29T21:56:00.870Z,21.30
2017-07-29T21:58:28.406Z,21.20
2017-07-29T22:00:55.930Z,21.30
2017-07-29T22:03:23.575Z,21.30
2017-07-29T22:05:51.110Z,21.40
2017-07-29T22:08:18.642Z,21.40
2017-07-29T22:10:46.237Z,21.40
2017-07-29T22:13:13.899Z,21.40
2017-07-29T22:15:41.454Z,21.40
2017-07-29T22:18:09.022Z,21.40
2017-07-29T22:20:36.573Z,21.50
2017-07-29T22:23:04.102Z,21.50
2017-07-29T22:25:32.392Z,21.50
2017-07-29T22:27:59.977Z,21.50
2017-07-29T22:30:27.506Z,21.50
2017-07-29T22:32:55.094Z,21.60
2017-07-29T22:35:22.653Z,21.60
2017-07-29T22:37:50.218Z,21.60
2017-07-29T22:40:17.746Z,21.60
2017-07-29T22:42:46.040Z,21.60
2017-07-29T22:45:13.591Z,21.60
2017-07-29T22:47:41.178Z,21.60
2017-07-29T22:50:08.854Z,21.60
2017-07-29T22:52:36.386Z,21.70
2017-07-29T22:55:03.923Z,21.70
2017-07-29T22:57:32.253Z,21.40
2017-07-29T22:59:59.798Z,21.40
2017-07-29T23:02:27.370Z,21.10
2017-07-29T23:04:54.936Z,20.90
2017-07-29T23:07:22.475Z,20.70
2017-07-29T23:09:50.045Z,20.40
2017-07-29T23:12:17.588Z,20.40
2017-07-29T23:14:45.169Z,20.40
2017-07-29T23:17:12.838Z,20.30
2017-07-29T23:19:40.386Z,20.30
2017-07-29T23:22:07.942Z,20.30
2017-07-29T23:24:35.518Z,20.20
2017-07-29T23:27:03.182Z,20.20
2017-07-29T23:29:30.748Z,20.20
2017-07-29T23:31:58.310Z,20.20
2017-07-29T23:34:25.838Z,20.20
2017-07-29T23:36:53.421Z,20.20
2017-07-29T23:39:20.978Z,20.20
2017-07-29T23:41:48.542Z,20.20
2017-07-29T23:44:16.074Z,20.10
2017-07-29T23:46:43.594Z,20.20
2017-07-29T23:49:11.224Z,20.20
2017-07-29T23:51:38.794Z,20.20
2017-07-29T23:54:06.453Z,20.30
2017-07-29T23:56:34.012Z,20.30
2017-07-29T23:59:01.548Z,20.30
